createdAt,value
2019-04-06T00:00:10.626Z,7.89
2019-04-06T00:02:38.188Z,7.81
2019-04-06T00:05:05.378Z,7.51
2019-04-06T00:07:32.139Z,7.52
2019-04-06T00:09:58.854Z,7.45
2019-04-06T00:12:25.614Z,7.36
2019-04-06T00:14:52.354Z,7.33
2019-04-06T00:17:19.094Z,7.35
2019-04-06T00:19:45.818Z,7.19
2019-04-06T00:22:12.562Z,7.09
2019-04-06T00:24:39.289Z,7.03
2019-04-06T00:27:06.051Z,6.94
2019-04-06T00:29:32.778Z,6.88
2019-04-06T00:32:05.723Z,6.82
2019-04-06T00:34:32.450Z,6.74
2019-04-06T00:36:59.209Z,6.69
2019-04-06T00:39:25.943Z,6.66
2019-04-06T00:41:52.710Z,6.54
2019-04-06T00:44:19.417Z,6.50
2019-04-06T00:46:46.166Z,6.55
2019-04-06T00:49:12.888Z,6.44
2019-04-06T00:51:39.630Z,6.46
2019-04-06T00:54:06.347Z,6.50
2019-04-06T00:56:33.093Z,6.48
2019-04-06T00:58:59.826Z,6.50
2019-04-06T01:01:26.594Z,6.54
2019-04-06T01:03:53.321Z,6.43
2019-04-06T01:06:20.487Z,6.38
2019-04-06T01:08:47.216Z,6.30
2019-04-06T01:11:13.977Z,6.36
2019-04-06T01:13:40.734Z,6.70
2019-04-06T01:16:07.482Z,6.63
2019-04-06T01:18:34.202Z,6.49
2019-04-06T01:21:00.994Z,6.43
2019-04-06T01:23:27.737Z,6.32
2019-04-06T01:25:54.470Z,6.59
2019-04-06T01:28:21.222Z,6.34
2019-04-06T01:30:48.050Z,6.26
2019-04-06T01:33:15.075Z,6.10
2019-04-06T01:35:41.807Z,6.43
2019-04-06T01:38:08.617Z,6.17
2019-04-06T01:40:35.344Z,6.20
2019-04-06T01:43:02.147Z,6.16
2019-04-06T01:45:28.836Z,6.35
2019-04-06T01:47:55.596Z,6.40
2019-04-06T01:50:22.318Z,6.14
2019-04-06T01:52:49.057Z,6.07
2019-04-06T01:55:15.779Z,5.99
2019-04-06T01:57:42.526Z,5.97
2019-04-06T02:00:09.456Z,5.83
2019-04-06T02:02:37.767Z,6.00
2019-04-06T02:05:05.030Z,6.12
2019-04-06T02:07:31.774Z,5.85
2019-04-06T02:09:58.510Z,5.88
2019-04-06T02:12:25.253Z,5.91
2019-04-06T02:14:51.978Z,5.87
2019-04-06T02:17:18.715Z,5.93
2019-04-06T02:19:45.447Z,5.80
2019-04-06T02:22:12.199Z,5.72
2019-04-06T02:24:38.922Z,5.81
2019-04-06T02:27:05.670Z,5.71
2019-04-06T02:29:32.410Z,5.79
2019-04-06T02:32:07.975Z,5.74
2019-04-06T02:34:56.123Z,5.68
2019-04-06T02:37:43.341Z,5.60
2019-04-06T02:40:22.130Z,5.56
2019-04-06T02:42:57.499Z,5.42
2019-04-06T02:45:24.231Z,5.44
2019-04-06T02:47:50.991Z,5.29
2019-04-06T02:50:17.728Z,5.26
2019-04-06T02:52:44.658Z,5.32
2019-04-06T02:55:11.178Z,5.43
2019-04-06T02:57:37.928Z,5.34
2019-04-06T03:00:04.707Z,5.41
2019-04-06T03:02:31.517Z,5.47
2019-04-06T03:04:58.185Z,5.34
2019-04-06T03:07:24.948Z,5.31
2019-04-06T03:09:51.687Z,5.43
2019-04-06T03:12:18.452Z,5.28
2019-04-06T03:14:45.207Z,5.26
2019-04-06T03:17:11.927Z,5.46
2019-04-06T03:19:38.671Z,5.61
2019-04-06T03:22:05.401Z,5.76
2019-04-06T03:24:32.163Z,5.47
2019-04-06T03:27:02.126Z,5.14
2019-04-06T03:29:25.665Z,5.32
2019-04-06T03:31:52.621Z,5.26
2019-04-06T03:34:21.074Z,5.09
2019-04-06T03:36:45.852Z,5.15
2019-04-06T03:39:12.613Z,4.99
2019-04-06T03:41:39.478Z,5.00
2019-04-06T03:44:06.131Z,4.90
2019-04-06T03:46:32.823Z,4.92
2019-04-06T03:48:59.770Z,4.96
2019-04-06T03:51:26.437Z,4.90
2019-04-06T03:53:53.241Z,4.86
2019-04-06T03:56:19.898Z,5.09
2019-04-06T03:58:46.564Z,4.95
2019-04-06T04:01:13.326Z,4.89
2019-04-06T04:03:40.390Z,4.66
2019-04-06T04:06:06.936Z,4.83
2019-04-06T04:08:33.547Z,4.87
2019-04-06T04:11:00.614Z,4.83
2019-04-06T04:13:27.042Z,4.67
2019-04-06T04:15:56.499Z,4.57
2019-04-06T04:18:20.615Z,4.52
2019-04-06T04:20:47.341Z,4.53
2019-04-06T04:23:14.097Z,4.46
2019-04-06T04:25:41.053Z,4.50
2019-04-06T04:28:07.757Z,4.47
2019-04-06T04:30:34.952Z,4.58
2019-04-06T04:33:01.218Z,4.44
2019-04-06T04:35:28.814Z,4.46
2019-04-06T04:37:55.566Z,4.42
2019-04-06T04:40:22.400Z,4.38
2019-04-06T04:42:49.217Z,4.23
2019-04-06T04:45:15.979Z,4.24
2019-04-06T04:47:42.711Z,4.15
2019-04-06T04:50:09.669Z,4.06
2019-04-06T04:52:36.524Z,4.19
2019-04-06T04:55:03.509Z,4.25
2019-04-06T04:57:39.630Z,4.15
2019-04-06T04:59:56.998Z,4.20
2019-04-06T05:02:23.735Z,4.20
2019-04-06T05:04:50.478Z,4.15
2019-04-06T05:07:17.199Z,4.27
2019-04-06T05:09:43.957Z,4.32
2019-04-06T05:12:10.695Z,4.27
2019-04-06T05:14:49.178Z,4.26
2019-04-06T05:17:15.904Z,4.35
2019-04-06T05:19:42.648Z,4.40
2019-04-06T05:22:09.370Z,4.68
2019-04-06T05:24:36.256Z,4.90
2019-04-06T05:27:02.879Z,4.72
2019-04-06T05:29:29.674Z,4.62
2019-04-06T05:31:56.415Z,4.69
2019-04-06T05:34:23.166Z,4.70
2019-04-06T05:36:49.906Z,4.69
2019-04-06T05:39:16.666Z,4.69
2019-04-06T05:41:43.406Z,4.80
2019-04-06T05:44:10.198Z,5.11
2019-04-06T05:46:36.937Z,4.86
2019-04-06T05:49:03.750Z,4.97
2019-04-06T05:51:30.480Z,4.97
2019-04-06T05:53:57.239Z,5.09
2019-04-06T05:56:23.982Z,5.08
2019-04-06T05:58:50.850Z,5.05
2019-04-06T06:01:17.954Z,4.91
2019-04-06T06:03:44.678Z,4.92
2019-04-06T06:06:12.870Z,4.92
2019-04-06T06:08:38.170Z,4.98
2019-04-06T06:11:05.084Z,4.94
2019-04-06T06:13:31.697Z,5.02
2019-04-06T06:15:58.712Z,4.86
2019-04-06T06:18:27.580Z,4.81
2019-04-06T06:20:52.349Z,4.83
2019-04-06T06:23:18.935Z,4.67
2019-04-06T06:25:45.847Z,4.74
2019-04-06T06:28:15.248Z,4.93
2019-04-06T06:30:39.326Z,4.93
2019-04-06T06:33:06.083Z,5.00
2019-04-06T06:35:32.837Z,5.09
2019-04-06T06:37:59.582Z,5.36
2019-04-06T06:40:26.704Z,5.28
2019-04-06T06:42:53.097Z,5.46
2019-04-06T06:45:19.869Z,5.55
2019-04-06T06:47:46.914Z,5.55
2019-04-06T06:50:13.686Z,5.57
2019-04-06T06:52:40.422Z,5.60
2019-04-06T06:55:07.318Z,5.73
2019-04-06T06:57:33.942Z,5.68
2019-04-06T07:00:00.712Z,5.88
2019-04-06T07:02:27.434Z,6.11
2019-04-06T07:04:54.194Z,6.15
2019-04-06T07:07:21.035Z,6.30
2019-04-06T07:09:47.801Z,6.41
2019-04-06T07:12:14.531Z,6.34
2019-04-06T07:14:41.302Z,6.41
2019-04-06T07:17:08.045Z,6.60
2019-04-06T07:19:34.785Z,6.81
2019-04-06T07:22:01.531Z,6.60
2019-04-06T07:24:28.292Z,6.62
2019-04-06T07:26:55.030Z,6.50
2019-04-06T07:29:21.770Z,6.44
2019-04-06T07:31:48.522Z,6.47
2019-04-06T07:34:15.250Z,6.55
2019-04-06T07:36:42.267Z,6.74
2019-04-06T07:39:08.738Z,6.76
2019-04-06T07:41:35.509Z,7.11
2019-04-06T07:44:02.550Z,7.35
2019-04-06T07:46:29.523Z,7.48
2019-04-06T07:49:07.484Z,7.73
2019-04-06T07:51:22.971Z,7.78
2019-04-06T07:53:49.874Z,7.69
2019-04-06T07:56:16.793Z,7.78
2019-04-06T07:58:49.157Z,7.91
2019-04-06T08:01:10.143Z,7.89
2019-04-06T08:03:37.194Z,8.36
2019-04-06T08:06:03.814Z,8.17
2019-04-06T08:08:30.622Z,8.34
2019-04-06T08:10:57.481Z,8.22
2019-04-06T08:13:24.306Z,8.53
2019-04-06T08:15:51.088Z,8.49
2019-04-06T08:18:17.935Z,8.90
2019-04-06T08:20:44.651Z,9.16
2019-04-06T08:23:11.406Z,9.45
2019-04-06T08:25:38.221Z,9.49
2019-04-06T08:28:05.062Z,9.63
2019-04-06T08:30:31.910Z,9.88
2019-04-06T08:32:58.736Z,9.95
2019-04-06T08:35:26.622Z,9.98
2019-04-06T08:37:52.505Z,10.12
2019-04-06T08:40:19.104Z,10.31
2019-04-06T08:42:45.906Z,10.40
2019-04-06T08:45:14.151Z,10.64
2019-04-06T08:47:39.585Z,10.89
2019-04-06T08:50:06.386Z,11.31
2019-04-06T08:52:33.185Z,11.30
2019-04-06T08:55:00.014Z,11.57
2019-04-06T08:57:26.788Z,11.48
2019-04-06T08:59:53.608Z,11.35
2019-04-06T09:02:20.786Z,11.49
2019-04-06T09:04:47.368Z,12.02
2019-04-06T09:07:14.034Z,11.92
2019-04-06T09:09:41.896Z,12.33
2019-04-06T09:12:08.637Z,12.18
2019-04-06T09:14:35.370Z,12.30
2019-04-06T09:17:02.126Z,12.47
2019-04-06T09:19:28.946Z,12.74
2019-04-06T09:21:55.802Z,12.63
2019-04-06T09:24:22.535Z,12.88
2019-04-06T09:26:49.285Z,12.58
2019-04-06T09:29:23.379Z,12.88
2019-04-06T09:31:42.874Z,13.15
2019-04-06T09:34:09.698Z,13.23
2019-04-06T09:36:36.449Z,13.11
2019-04-06T09:39:05.236Z,13.17
2019-04-06T09:41:31.982Z,13.33
2019-04-06T09:43:58.811Z,13.65
2019-04-06T09:46:35.635Z,13.71
2019-04-06T09:49:22.982Z,13.66
2019-04-06T09:52:09.389Z,13.71
2019-04-06T09:54:43.530Z,13.91
2019-04-06T09:57:30.294Z,14.12
2019-04-06T10:00:16.371Z,13.94
2019-04-06T10:02:48.993Z,14.32
2019-04-06T10:05:21.819Z,14.35
2019-04-06T10:08:08.736Z,14.16
2019-04-06T10:10:55.885Z,14.31
2019-04-06T10:13:43.233Z,14.15
2019-04-06T10:16:15.829Z,14.38
2019-04-06T10:18:48.542Z,14.54
2019-04-06T10:21:36.193Z,14.86
2019-04-06T10:24:23.405Z,15.61
2019-04-06T10:26:56.122Z,15.55
2019-04-06T10:29:48.894Z,14.89
2019-04-06T10:32:16.218Z,14.86
2019-04-06T10:35:02.606Z,14.62
2019-04-06T10:37:42.778Z,14.37
2019-04-06T10:40:32.170Z,14.62
2019-04-06T10:43:04.782Z,14.88
2019-04-06T10:45:41.490Z,15.12
2019-04-06T10:48:25.294Z,15.29
2019-04-06T10:50:57.950Z,15.25
2019-04-06T10:53:35.329Z,15.51
2019-04-06T10:56:16.268Z,15.19
2019-04-06T10:58:56.614Z,15.42
2019-04-06T11:01:45.271Z,15.40
2019-04-06T11:04:32.141Z,15.29
2019-04-06T11:07:20.511Z,15.51
2019-04-06T11:09:53.034Z,15.32
2019-04-06T11:12:28.386Z,15.19
2019-04-06T11:15:01.126Z,15.61
2019-04-06T11:17:35.904Z,15.43
2019-04-06T11:20:21.383Z,15.24
2019-04-06T11:22:54.618Z,15.19
2019-04-06T11:25:41.378Z,15.32
2019-04-06T11:28:16.471Z,15.57
2019-04-06T11:30:51.555Z,15.04
2019-04-06T11:33:36.778Z,15.06
2019-04-06T11:36:14.873Z,15.52
2019-04-06T11:38:47.490Z,15.83
2019-04-06T11:41:25.390Z,16.11
2019-04-06T11:44:01.480Z,15.31
2019-04-06T11:46:48.178Z,15.19
2019-04-06T11:49:22.374Z,15.42
2019-04-06T11:52:00.177Z,16.02
2019-04-06T11:54:39.685Z,15.99
2019-04-06T11:57:15.386Z,16.48
2019-04-06T11:59:54.167Z,16.70
2019-04-06T12:02:41.217Z,16.01
2019-04-06T12:05:18.148Z,15.68
2019-04-06T12:07:51.258Z,15.73
2019-04-06T12:10:24.658Z,16.22
2019-04-06T12:13:01.227Z,16.33
2019-04-06T12:15:34.475Z,15.97
2019-04-06T12:18:09.930Z,16.16
2019-04-06T12:20:43.797Z,15.89
2019-04-06T12:23:32.648Z,15.96
2019-04-06T12:26:16.369Z,15.90
2019-04-06T12:28:49.022Z,15.48
2019-04-06T12:31:26.841Z,15.57
2019-04-06T12:34:11.501Z,16.35
2019-04-06T12:36:58.012Z,16.40
2019-04-06T12:39:29.565Z,16.79
2019-04-06T12:42:02.571Z,16.98
2019-04-06T12:44:49.716Z,16.71
2019-04-06T12:47:34.060Z,16.65
2019-04-06T12:50:24.309Z,16.51
2019-04-06T12:53:12.974Z,15.98
2019-04-06T12:56:02.300Z,15.58
2019-04-06T12:58:51.636Z,15.53
2019-04-06T13:01:38.819Z,15.58
2019-04-06T13:04:11.425Z,15.55
2019-04-06T13:06:53.999Z,15.64
2019-04-06T13:09:43.266Z,15.50
2019-04-06T13:12:31.434Z,15.63
2019-04-06T13:15:17.811Z,16.17
2019-04-06T13:17:50.314Z,16.02
2019-04-06T13:20:30.558Z,16.00
2019-04-06T13:23:17.126Z,15.93
2019-04-06T13:26:04.294Z,15.98
2019-04-06T13:28:42.592Z,15.91
2019-04-06T13:31:15.436Z,15.20
2019-04-06T13:34:03.641Z,15.04
2019-04-06T13:36:38.252Z,15.08
2019-04-06T13:39:14.990Z,15.06
2019-04-06T13:41:56.500Z,15.02
2019-04-06T13:44:30.926Z,15.25
2019-04-06T13:47:09.019Z,15.37
2019-04-06T13:49:41.290Z,15.36
2019-04-06T13:52:20.707Z,15.40
2019-04-06T13:54:57.919Z,15.51
2019-04-06T13:57:32.196Z,15.49
2019-04-06T14:00:17.826Z,15.44
2019-04-06T14:02:56.801Z,15.30
2019-04-06T14:05:34.937Z,15.55
2019-04-06T14:08:13.197Z,15.63
2019-04-06T14:10:50.354Z,15.52
2019-04-06T14:13:37.734Z,15.68
2019-04-06T14:16:18.274Z,16.38
2019-04-06T14:19:05.459Z,16.49
2019-04-06T14:21:43.311Z,16.27
2019-04-06T14:24:30.316Z,16.10
2019-04-06T14:27:17.685Z,16.55
2019-04-06T14:30:01.534Z,16.38
2019-04-06T14:32:42.199Z,16.35
2019-04-06T14:35:15.666Z,16.29
2019-04-06T14:38:04.742Z,16.26
2019-04-06T14:40:41.747Z,16.09
2019-04-06T14:43:14.511Z,16.30
2019-04-06T14:45:47.919Z,15.96
2019-04-06T14:48:20.224Z,15.89
2019-04-06T14:51:06.586Z,15.86
2019-04-06T14:53:40.279Z,15.82
2019-04-06T14:56:14.608Z,15.85
2019-04-06T14:58:47.028Z,16.19
2019-04-06T15:01:38.334Z,16.31
2019-04-06T15:04:12.082Z,16.69
2019-04-06T15:06:45.297Z,16.72
2019-04-06T15:09:32.513Z,16.69
2019-04-06T15:12:19.222Z,16.55
2019-04-06T15:14:51.490Z,16.59
2019-04-06T15:17:30.214Z,16.37
2019-04-06T15:20:04.432Z,16.62
2019-04-06T15:22:53.569Z,16.54
2019-04-06T15:25:32.275Z,16.54
2019-04-06T15:28:11.355Z,16.61
2019-04-06T15:30:58.686Z,16.73
2019-04-06T15:33:36.786Z,16.82
2019-04-06T15:36:09.437Z,16.61
2019-04-06T15:38:50.771Z,16.33
2019-04-06T15:41:28.941Z,16.22
2019-04-06T15:44:13.818Z,16.12
2019-04-06T15:46:46.397Z,16.17
2019-04-06T15:49:22.385Z,16.05
2019-04-06T15:52:11.485Z,16.09
2019-04-06T15:54:41.610Z,16.11
2019-04-06T15:57:27.226Z,16.07
2019-04-06T16:00:02.029Z,16.34
2019-04-06T16:02:52.215Z,16.19
2019-04-06T16:05:28.170Z,16.26
2019-04-06T16:08:04.402Z,16.31
2019-04-06T16:10:52.735Z,16.20
2019-04-06T16:13:43.390Z,15.97
2019-04-06T16:16:14.825Z,15.92
2019-04-06T16:18:50.198Z,16.01
2019-04-06T16:21:31.395Z,16.00
2019-04-06T16:24:04.774Z,15.95
2019-04-06T16:26:39.270Z,16.08
2019-04-06T16:29:22.156Z,16.02
2019-04-06T16:32:10.796Z,15.91
2019-04-06T16:34:36.077Z,15.79
2019-04-06T16:37:13.330Z,15.85
2019-04-06T16:40:04.627Z,15.85
2019-04-06T16:42:37.225Z,15.80
2019-04-06T16:45:17.347Z,15.92
2019-04-06T16:47:51.570Z,15.92
2019-04-06T16:50:39.995Z,15.93
2019-04-06T16:53:20.831Z,15.98
2019-04-06T16:55:57.177Z,15.73
2019-04-06T16:58:38.497Z,15.72
2019-04-06T17:01:14.407Z,15.85
2019-04-06T17:03:49.366Z,16.01
2019-04-06T17:06:39.770Z,16.03
2019-04-06T17:09:26.562Z,16.09
2019-04-06T17:12:12.478Z,15.92
2019-04-06T17:14:57.247Z,15.86
2019-04-06T17:17:39.356Z,15.61
2019-04-06T17:20:28.562Z,15.50
2019-04-06T17:23:02.906Z,15.45
2019-04-06T17:25:55.126Z,15.26
2019-04-06T17:28:32.149Z,15.11
2019-04-06T17:31:05.142Z,15.15
2019-04-06T17:33:38.913Z,14.74
2019-04-06T17:36:28.622Z,14.76
2019-04-06T17:39:16.150Z,14.37
2019-04-06T17:41:53.162Z,14.22
2019-04-06T17:44:42.786Z,14.08
2019-04-06T17:47:20.862Z,14.14
2019-04-06T17:49:57.906Z,13.83
2019-04-06T17:52:35.253Z,13.61
2019-04-06T17:55:15.005Z,13.52
2019-04-06T17:57:50.118Z,13.39
2019-04-06T18:00:27.218Z,13.21
2019-04-06T18:02:59.720Z,13.07
2019-04-06T18:05:48.995Z,13.02
2019-04-06T18:08:33.113Z,12.85
2019-04-06T18:11:08.677Z,12.88
2019-04-06T18:13:52.143Z,12.81
2019-04-06T18:16:20.237Z,12.78
2019-04-06T18:18:47.392Z,12.71
2019-04-06T18:21:13.696Z,12.76
2019-04-06T18:23:40.437Z,12.92
2019-04-06T18:26:07.158Z,12.75
2019-04-06T18:28:33.992Z,12.45
2019-04-06T18:31:10.363Z,12.39
2019-04-06T18:33:36.614Z,12.40
2019-04-06T18:36:03.347Z,12.45
2019-04-06T18:38:36.489Z,12.38
2019-04-06T18:41:03.038Z,12.36
2019-04-06T18:43:29.757Z,12.47
2019-04-06T18:45:56.970Z,12.36
2019-04-06T18:48:23.622Z,12.15
2019-04-06T18:50:49.958Z,11.92
2019-04-06T18:53:17.206Z,12.11
2019-04-06T18:55:43.454Z,12.28
2019-04-06T18:58:12.763Z,12.05
2019-04-06T19:00:36.886Z,11.94
2019-04-06T19:03:17.407Z,11.78
2019-04-06T19:05:30.367Z,11.66
2019-04-06T19:07:57.508Z,11.62
2019-04-06T19:10:23.821Z,11.49
2019-04-06T19:12:51.109Z,11.48
2019-04-06T19:15:17.380Z,11.37
2019-04-06T19:17:44.042Z,11.50
2019-04-06T19:20:11.162Z,11.18
2019-04-06T19:22:37.714Z,11.20
2019-04-06T19:25:04.969Z,11.24
2019-04-06T19:27:31.685Z,11.38
2019-04-06T19:29:58.473Z,11.13
2019-04-06T19:32:25.226Z,11.41
2019-04-06T19:34:52.851Z,11.50
2019-04-06T19:37:19.354Z,11.43
2019-04-06T19:39:46.561Z,11.50
2019-04-06T19:42:12.901Z,11.82
2019-04-06T19:44:40.391Z,11.09
2019-04-06T19:47:07.622Z,11.11
2019-04-06T19:49:34.003Z,10.96
2019-04-06T19:52:00.486Z,11.11
2019-04-06T19:54:27.241Z,11.16
2019-04-06T19:56:54.146Z,11.10
2019-04-06T19:59:21.119Z,10.85
2019-04-06T20:01:47.429Z,11.18
2019-04-06T20:04:14.249Z,11.48
2019-04-06T20:06:46.671Z,11.56
2019-04-06T20:09:13.447Z,11.65
2019-04-06T20:11:40.063Z,11.65
2019-04-06T20:14:06.645Z,11.41
2019-04-06T20:16:33.389Z,11.35
2019-04-06T20:19:00.130Z,11.36
2019-04-06T20:21:26.862Z,11.42
2019-04-06T20:23:53.992Z,11.37
2019-04-06T20:26:20.663Z,11.33
2019-04-06T20:28:47.169Z,11.25
2019-04-06T20:31:13.882Z,11.17
2019-04-06T20:33:48.207Z,11.19
2019-04-06T20:36:07.349Z,11.31
2019-04-06T20:38:34.102Z,11.40
2019-04-06T20:41:00.882Z,11.05
2019-04-06T20:43:27.656Z,10.83
2019-04-06T20:45:54.373Z,10.28
2019-04-06T20:48:21.511Z,10.14
2019-04-06T20:50:47.834Z,10.05
2019-04-06T20:53:14.643Z,10.08
2019-04-06T20:55:41.273Z,9.95
2019-04-06T20:58:08.344Z,10.06
2019-04-06T21:00:34.734Z,10.07
2019-04-06T21:03:04.328Z,10.10
2019-04-06T21:05:28.206Z,10.09
2019-04-06T21:07:55.421Z,10.02
2019-04-06T21:10:21.663Z,9.96
2019-04-06T21:12:48.661Z,9.90
2019-04-06T21:15:20.050Z,9.95
2019-04-06T21:17:41.841Z,9.75
2019-04-06T21:20:08.555Z,9.57
2019-04-06T21:22:35.295Z,9.42
2019-04-06T21:25:02.060Z,9.32
2019-04-06T21:27:28.860Z,9.43
2019-04-06T21:29:56.053Z,9.34
2019-04-06T21:32:22.618Z,9.35
2019-04-06T21:34:49.481Z,9.29
2019-04-06T21:37:15.706Z,9.26
2019-04-06T21:39:42.743Z,9.35
2019-04-06T21:42:09.810Z,9.45
2019-04-06T21:44:36.555Z,9.45
2019-04-06T21:47:03.447Z,9.47
2019-04-06T21:49:30.161Z,9.45
2019-04-06T21:51:57.000Z,9.30
2019-04-06T21:54:24.008Z,9.45
2019-04-06T21:56:50.365Z,9.33
2019-04-06T21:59:17.478Z,9.53
2019-04-06T22:01:44.351Z,9.78
2019-04-06T22:04:22.176Z,9.87
2019-04-06T22:06:37.256Z,10.07
2019-04-06T22:09:06.365Z,10.22
2019-04-06T22:11:33.215Z,10.38
2019-04-06T22:14:00.028Z,10.53
2019-04-06T22:16:27.230Z,10.84
2019-04-06T22:18:53.656Z,10.77
2019-04-06T22:21:19.987Z,10.58
2019-04-06T22:23:47.414Z,10.67
2019-04-06T22:26:13.479Z,10.76
2019-04-06T22:28:40.279Z,10.88
2019-04-06T22:31:06.940Z,11.00
2019-04-06T22:33:34.327Z,11.06
2019-04-06T22:36:00.940Z,11.27
2019-04-06T22:38:27.264Z,10.96
2019-04-06T22:40:53.912Z,10.82
2019-04-06T22:43:20.651Z,10.87
2019-04-06T22:45:47.349Z,10.60
2019-04-06T22:48:14.083Z,10.93
2019-04-06T22:50:40.802Z,10.56
2019-04-06T22:53:07.563Z,10.17
2019-04-06T22:55:34.671Z,10.07
2019-04-06T22:58:01.590Z,10.05
2019-04-06T23:00:32.132Z,10.75
2019-04-06T23:03:11.639Z,10.23
2019-04-06T23:05:42.581Z,10.19
2019-04-06T23:08:09.324Z,10.08
2019-04-06T23:10:36.047Z,9.97
2019-04-06T23:13:02.274Z,9.99
2019-04-06T23:15:29.017Z,9.98
2019-04-06T23:17:55.731Z,10.90
2019-04-06T23:20:22.478Z,10.40
2019-04-06T23:22:49.202Z,10.28
2019-04-06T23:25:16.161Z,10.63
2019-04-06T23:27:43.001Z,10.30
2019-04-06T23:30:10.444Z,10.01
2019-04-06T23:32:36.196Z,9.96
2019-04-06T23:35:02.883Z,9.39
2019-04-06T23:37:29.926Z,9.34
2019-04-06T23:39:56.334Z,9.69
2019-04-06T23:42:23.051Z,9.65
2019-04-06T23:44:49.790Z,9.72
2019-04-06T23:47:16.544Z,9.68
2019-04-06T23:49:43.441Z,10.20
2019-04-06T23:52:10.439Z,9.61
2019-04-06T23:54:37.064Z,9.60
2019-04-06T23:57:03.730Z,9.43
2019-04-06T23:59:30.214Z,9.42
